Freemans Mills, North Carolina
Current Conditions -  °F | °C
As of 8:54 PM on Saturday 25 Oct 2014 (Local Time) from KINT Reporting Station
Clear Clear  
Wind Chill: 64°   Ceiling: Unl
Heat Index: 64°   Visibility: 10mi
Dew Point: 37°   Wind: 5mph
Humidity: 37%   Direction: 260°W
Pressure: 29.93"   Gusts: NA
Location:  35.9808°N, 80.1272°W
Report Text: KINT 260054Z AUTO 26004KT 10SM CLR 18/03 A2993 RMK AO2 SLP129 T01780028
Loading
Personal Weather Stations






























Interactive Weather Map
Tropical Storm Tracking
New forecast layout! Learn more

10-Day Weather Forecast

Advertisements
Track Severe Weather on mobile